Time;durP1;ratioP1;P1;durP2;ratioP2;P2;SDS_P1;SDS_P2;PMS_P1;PMS_P2;Temp;Humidity;BMP_temperature;BMP_pressure;BME280_temperature;BME280_humidity;BME280_pressure;Samples;Min_cycle;Max_cycle;Signal;HPM_P1;HPM_P2
2021/11/25 00:02:26;;;;;;;113.20;49.70;;;;;;;-0.69;78.88;98849.18;215823;1322;22579;-78
2021/11/25 00:07:28;;;;;;;117.00;50.40;;;;;;;-0.70;78.84;98847.77;215639;1322;24840;-78
2021/11/25 00:12:31;;;;;;;109.90;49.20;;;;;;;-0.78;78.65;98839.84;215543;1320;22722;-78
2021/11/25 00:17:33;;;;;;;125.70;55.60;;;;;;;-0.85;78.94;98827.75;215242;1320;25577;-78
2021/11/25 00:22:35;;;;;;;132.80;57.10;;;;;;;-0.88;79.10;98819.99;215195;1321;25210;-77
2021/11/25 00:27:40;;;;;;;125.40;56.70;;;;;;;-0.85;79.30;98812.26;215097;1320;22776;-77
2021/11/25 00:32:43;;;;;;;129.10;59.80;;;;;;;-0.83;79.26;98801.02;214975;1319;22744;-77
2021/11/25 00:37:45;;;;;;;126.40;53.70;;;;;;;-0.85;79.22;98800.55;214710;1325;22599;-77
2021/11/25 00:42:48;;;;;;;123.00;56.00;;;;;;;-0.94;79.38;98800.53;215118;1319;22900;-77
2021/11/25 00:47:49;;;;;;;123.10;57.50;;;;;;;-0.97;79.36;98797.96;215397;1322;22631;-77
2021/11/25 00:52:51;;;;;;;118.10;50.80;;;;;;;-0.96;79.55;98784.58;214935;1323;26158;-78
2021/11/25 00:58:07;;;;;;;120.60;54.50;;;;;;;-0.97;79.63;98780.20;215379;1322;22685;-77
2021/11/25 01:03:13;;;;;;;113.80;50.20;;;;;;;-0.98;79.88;98785.52;215447;1322;22614;-78
2021/11/25 01:08:27;;;;;;;113.80;53.70;;;;;;;-1.00;80.01;98772.91;215109;1320;22743;-77
2021/11/25 01:13:29;;;;;;;114.70;51.40;;;;;;;-1.01;79.85;98759.40;215261;1321;23882;-77
2021/11/25 01:18:32;;;;;;;115.20;48.70;;;;;;;-1.03;79.61;98755.89;215239;1321;23064;-77
2021/11/25 01:23:34;;;;;;;111.70;48.70;;;;;;;-1.05;79.93;98747.73;214783;1315;22586;-78
2021/11/25 01:28:36;;;;;;;109.60;47.90;;;;;;;-1.08;80.01;98742.47;215323;1322;22712;-78
2021/11/25 01:33:38;;;;;;;106.90;50.50;;;;;;;-1.10;79.92;98738.79;215421;1320;25381;-78
2021/11/25 01:38:40;;;;;;;115.00;52.50;;;;;;;-1.14;79.72;98726.56;215311;1320;22556;-78
2021/11/25 01:43:43;;;;;;;104.30;47.10;;;;;;;-1.15;79.90;98718.71;215340;1319;24301;-78
2021/11/25 01:48:47;;;;;;;117.50;50.60;;;;;;;-1.18;79.89;98711.95;215475;1317;23804;-78
2021/11/25 01:53:50;;;;;;;109.40;50.10;;;;;;;-1.21;79.97;98703.67;215427;1321;22631;-78
2021/11/25 01:58:52;;;;;;;117.30;53.20;;;;;;;-1.26;79.87;98694.02;215397;1322;22867;-78
2021/11/25 02:04:14;;;;;;;109.80;52.00;;;;;;;-1.28;79.84;98684.48;215363;1320;23757;-78
2021/11/25 02:09:16;;;;;;;106.90;47.80;;;;;;;-1.29;80.01;98683.52;214916;1324;22763;-78
2021/11/25 02:14:19;;;;;;;107.40;49.70;;;;;;;-1.33;79.84;98674.65;215357;1320;23759;-77
2021/11/25 02:19:22;;;;;;;99.70;47.00;;;;;;;-1.43;79.98;98665.66;214906;1322;22875;-77
2021/11/25 02:24:25;;;;;;;103.50;49.50;;;;;;;-1.51;79.74;98659.20;215111;1322;22693;-77
2021/11/25 02:29:27;;;;;;;101.00;48.90;;;;;;;-1.58;79.93;98648.75;215552;1322;22678;-78
2021/11/25 02:34:29;;;;;;;102.10;46.50;;;;;;;-1.61;79.78;98646.53;215162;1321;22749;-78
2021/11/25 02:39:49;;;;;;;89.80;44.20;;;;;;;-1.64;80.17;98633.46;215507;1322;24345;-79
2021/11/25 02:44:51;;;;;;;92.10;41.90;;;;;;;-1.67;80.25;98625.52;214891;1324;23791;-78
2021/11/25 02:49:53;;;;;;;79.40;38.50;;;;;;;-1.72;80.40;98617.11;215000;1323;23855;-78
2021/11/25 02:54:56;;;;;;;85.70;42.50;;;;;;;-1.77;80.50;98609.05;215277;1322;22557;-78
2021/11/25 02:59:58;;;;;;;83.30;42.80;;;;;;;-1.79;80.25;98607.32;215312;1319;25421;-79
2021/11/25 03:05:02;;;;;;;77.10;38.60;;;;;;;-1.76;80.74;98607.27;215482;1321;23890;-76
2021/11/25 03:10:06;;;;;;;85.60;41.00;;;;;;;-1.75;80.87;98605.57;214808;1324;24418;-78
2021/11/25 03:15:08;;;;;;;90.30;44.10;;;;;;;-1.78;80.58;98603.26;215299;1321;22779;-78
2021/11/25 03:20:12;;;;;;;111.50;55.70;;;;;;;-1.88;80.44;98600.61;215117;1317;22514;-77
2021/11/25 03:25:15;;;;;;;115.30;54.70;;;;;;;-1.98;80.42;98596.77;214705;1316;22612;-77
2021/11/25 03:30:18;;;;;;;100.60;48.40;;;;;;;-2.05;80.35;98592.86;215066;1317;25483;-77
2021/11/25 03:35:20;;;;;;;97.80;44.90;;;;;;;-2.13;80.32;98586.08;215251;1322;22587;-77
2021/11/25 03:40:23;;;;;;;101.60;48.50;;;;;;;-2.23;80.49;98583.59;215333;1321;22575;-77
2021/11/25 03:45:35;;;;;;;105.50;50.40;;;;;;;-2.28;80.64;98577.64;215555;1319;25464;-77
2021/11/25 03:50:37;;;;;;;114.20;54.50;;;;;;;-2.31;80.81;98577.54;215471;1321;24448;-77
2021/11/25 03:55:43;;;;;;;115.60;53.50;;;;;;;-2.41;80.39;98563.38;215662;1321;25224;-78
2021/11/25 04:00:59;;;;;;;104.50;50.30;;;;;;;-2.47;80.44;98551.54;215085;1323;24303;-78
2021/11/25 04:06:02;;;;;;;98.20;47.40;;;;;;;-2.43;80.98;98533.91;215212;1320;24326;-77
2021/11/25 04:11:06;;;;;;;105.10;49.90;;;;;;;-2.39;81.14;98527.35;214888;1323;25217;-77
2021/11/25 04:16:08;;;;;;;104.20;53.80;;;;;;;-2.41;81.03;98522.20;215570;1322;22601;-78
2021/11/25 04:21:10;;;;;;;104.50;52.10;;;;;;;-2.47;80.85;98518.36;215404;1322;24288;-78
2021/11/25 04:26:13;;;;;;;96.80;46.20;;;;;;;-2.52;80.64;98517.05;215607;1320;25316;-77
2021/11/25 04:36:36;;;;;;;91.30;46.40;;;;;;;-2.51;81.31;98502.40;215450;1321;22756;-77
2021/11/25 04:41:38;;;;;;;108.10;54.00;;;;;;;-2.53;81.29;98499.70;215186;1322;25313;-78
2021/11/25 04:46:40;;;;;;;103.40;51.80;;;;;;;-2.53;81.25;98493.33;215572;1322;22961;-77
2021/11/25 04:51:43;;;;;;;91.40;46.00;;;;;;;-2.51;81.60;98484.89;215334;1323;25940;-78
2021/11/25 04:56:46;;;;;;;99.60;47.10;;;;;;;-2.53;81.25;98477.52;215587;1322;22803;-79
2021/11/25 05:01:48;;;;;;;83.10;40.50;;;;;;;-2.53;81.29;98471.41;214941;1324;25950;-79
2021/11/25 05:06:51;;;;;;;95.20;50.80;;;;;;;-2.56;81.28;98467.08;215361;1322;22566;-77
2021/11/25 05:11:53;;;;;;;102.40;51.20;;;;;;;-2.57;81.35;98464.62;212922;1323;2899490;-79
2021/11/25 05:16:56;;;;;;;94.30;45.40;;;;;;;-2.57;81.38;98462.48;215125;1322;22637;-78
2021/11/25 05:22:05;;;;;;;98.60;48.30;;;;;;;-2.58;81.33;98455.74;215051;1322;22643;-77
2021/11/25 05:27:24;;;;;;;91.40;47.10;;;;;;;-2.62;81.25;98445.88;214833;1320;22603;-78
2021/11/25 05:32:26;;;;;;;105.40;52.30;;;;;;;-2.67;81.19;98440.05;215120;1321;22581;-77
2021/11/25 05:37:29;;;;;;;126.90;59.80;;;;;;;-2.71;81.11;98438.79;215262;1321;22582;-76
2021/11/25 05:42:33;;;;;;;119.60;56.50;;;;;;;-2.76;80.90;98440.52;215378;1322;22904;-79
2021/11/25 05:47:37;;;;;;;116.90;57.00;;;;;;;-2.74;81.33;98435.83;215192;1320;22598;-78
2021/11/25 05:52:40;;;;;;;124.90;57.30;;;;;;;-2.72;81.54;98434.16;215245;1320;25583;-78
2021/11/25 05:57:48;;;;;;;121.80;60.90;;;;;;;-2.75;81.56;98435.55;215681;1320;22927;-78
2021/11/25 06:03:09;;;;;;;138.30;67.50;;;;;;;-2.79;81.36;98432.95;215830;1322;25516;-78
2021/11/25 06:08:11;;;;;;;136.90;64.00;;;;;;;-2.80;81.47;98437.35;215356;1321;22861;-79
2021/11/25 06:13:13;;;;;;;110.90;52.80;;;;;;;-2.78;81.51;98435.23;215789;1322;22695;-78
2021/11/25 06:18:29;;;;;;;111.00;56.70;;;;;;;-2.70;81.93;98433.55;215570;1321;22738;-78
2021/11/25 06:23:51;;;;;;;125.40;58.90;;;;;;;-2.67;81.73;98430.42;215506;1320;22799;-78
2021/11/25 06:28:55;;;;;;;132.40;67.70;;;;;;;-2.66;81.69;98427.39;214949;1325;25332;-78
2021/11/25 06:33:57;;;;;;;129.10;62.90;;;;;;;-2.64;81.48;98430.05;215468;1322;22542;-79
2021/11/25 06:38:59;;;;;;;109.30;53.80;;;;;;;-2.56;81.63;98421.07;215493;1321;22708;-78
2021/11/25 06:44:02;;;;;;;106.90;52.50;;;;;;;-2.46;81.85;98426.86;215509;1315;22634;-78
2021/11/25 06:49:04;;;;;;;109.40;52.80;;;;;;;-2.41;81.66;98423.20;215742;1320;22836;-78
2021/11/25 06:54:06;;;;;;;111.00;56.20;;;;;;;-2.36;81.88;98423.28;215952;1322;25426;-77
2021/11/25 06:59:16;;;;;;;107.10;53.60;;;;;;;-2.29;81.70;98425.14;215867;1321;22800;-77
2021/11/25 07:04:39;;;;;;;106.20;53.80;;;;;;;-2.15;81.95;98414.52;216357;1316;22776;-75
2021/11/25 07:09:41;;;;;;;74.80;35.50;;;;;;;-2.02;81.81;98407.14;215613;1315;24243;-79
2021/11/25 07:14:50;;;;;;;88.80;44.70;;;;;;;-1.98;81.40;98402.23;216037;1316;24032;-76
2021/11/25 07:19:52;;;;;;;84.00;42.50;;;;;;;-1.90;81.32;98402.48;216162;1316;22653;-76
2021/11/25 07:25:05;;;;;;;71.10;36.50;;;;;;;-1.75;81.58;98397.66;215629;1316;23028;-77
2021/11/25 07:30:11;;;;;;;78.60;38.70;;;;;;;-1.38;82.33;98391.00;215745;1316;22678;-77
2021/11/25 07:35:18;;;;;;;74.70;36.90;;;;;;;-1.10;82.16;98389.98;215914;1316;22797;-79
2021/11/25 07:40:24;;;;;;;59.10;31.50;;;;;;;-0.86;82.25;98380.24;216469;1316;24320;-77
2021/11/25 07:45:27;;;;;;;70.80;36.50;;;;;;;-0.51;82.08;98370.92;216134;1316;22769;-78
2021/11/25 07:50:43;;;;;;;60.90;33.30;;;;;;;-0.45;80.87;98369.90;215790;1316;23824;-77
2021/11/25 07:56:06;;;;;;;65.00;33.00;;;;;;;-0.40;80.87;98363.55;216132;1316;22683;-77
2021/11/25 08:01:08;;;;;;;65.80;34.90;;;;;;;-0.26;81.22;98363.80;216289;1316;26061;-77
2021/11/25 08:06:11;;;;;;;66.60;33.90;;;;;;;-0.11;81.06;98364.01;215554;1316;22654;-76
2021/11/25 08:11:26;;;;;;;74.70;35.70;;;;;;;0.00;80.85;98357.89;215441;1316;23370;-77
2021/11/25 08:16:39;;;;;;;62.40;32.20;;;;;;;0.11;80.41;98355.23;215011;1316;23159;-77
2021/11/25 08:21:41;;;;;;;62.10;32.60;;;;;;;0.27;80.31;98353.46;215674;1316;23064;-77
2021/11/25 08:26:43;;;;;;;65.50;32.20;;;;;;;0.38;79.93;98351.86;215359;1316;23600;-77
2021/11/25 08:31:45;;;;;;;72.30;34.70;;;;;;;0.53;80.10;98344.41;215441;1316;23678;-80
2021/11/25 08:36:48;;;;;;;71.30;35.90;;;;;;;0.74;79.88;98340.75;216315;1316;25249;-79
2021/11/25 08:42:09;;;;;;;65.00;33.70;;;;;;;0.97;80.41;98332.63;216099;1315;22832;-79
2021/11/25 08:47:11;;;;;;;53.80;28.00;;;;;;;1.20;80.10;98329.11;216224;1315;25264;-80
2021/11/25 08:52:13;;;;;;;48.30;24.10;;;;;;;1.36;79.63;98328.86;216143;1320;22607;-79
2021/11/25 08:57:17;;;;;;;37.50;22.90;;;;;;;1.46;79.10;98319.36;216249;1316;22604;-79
2021/11/25 09:02:19;;;;;;;39.90;22.30;;;;;;;1.57;78.52;98315.67;216631;1316;25465;-79
2021/11/25 09:07:22;;;;;;;38.60;20.60;;;;;;;1.68;78.62;98311.21;216001;1315;22602;-79
2021/11/25 09:12:24;;;;;;;38.50;21.00;;;;;;;1.89;78.80;98300.56;216134;1316;25252;-78
2021/11/25 09:17:49;;;;;;;42.00;22.30;;;;;;;2.21;79.06;98290.46;215826;1316;25447;-78
2021/11/25 09:23:11;;;;;;;38.40;22.20;;;;;;;2.46;78.88;98285.01;215943;1315;22628;-78
2021/11/25 09:28:19;;;;;;;32.90;19.20;;;;;;;2.58;78.29;98271.70;215812;1316;22666;-78
2021/11/25 09:33:35;;;;;;;33.10;18.60;;;;;;;2.72;78.07;98266.77;215477;1316;22622;-78
2021/11/25 09:38:37;;;;;;;37.00;19.20;;;;;;;3.03;77.96;98263.02;215798;1316;25359;-77
2021/11/25 09:43:53;;;;;;;33.60;18.30;;;;;;;3.35;77.35;98249.06;215531;1316;22690;-78
2021/11/25 09:48:56;;;;;;;31.20;17.70;;;;;;;3.66;76.91;98231.14;215945;1316;22624;-77
2021/11/25 09:54:20;;;;;;;27.00;16.40;;;;;;;3.92;76.50;98218.29;215825;1316;22915;-78
2021/11/25 09:59:22;;;;;;;30.50;17.00;;;;;;;4.15;75.90;98204.81;215690;1316;22826;-78
2021/11/25 10:04:30;;;;;;;28.80;17.00;;;;;;;4.29;75.32;98185.14;216381;1315;23480;-79
2021/11/25 10:09:39;;;;;;;29.70;16.30;;;;;;;4.41;74.52;98175.88;216162;1315;22733;-77
2021/11/25 10:14:41;;;;;;;34.30;18.20;;;;;;;4.51;73.95;98169.00;216248;1315;22625;-76
2021/11/25 10:20:06;;;;;;;31.40;17.80;;;;;;;4.58;73.14;98165.23;216085;1315;23115;-77
2021/11/25 10:25:08;;;;;;;36.20;19.70;;;;;;;4.56;72.40;98159.61;215990;1316;22574;-77
2021/11/25 10:30:17;;;;;;;39.10;21.50;;;;;;;4.53;72.21;98151.45;216224;1316;25362;-77
2021/11/25 10:35:29;;;;;;;37.40;20.50;;;;;;;4.43;71.37;98144.64;216010;1316;24327;-77
2021/11/25 10:40:35;;;;;;;46.10;21.90;;;;;;;4.41;71.72;98128.89;216757;1316;22781;-77
2021/11/25 10:45:44;;;;;;;53.80;22.90;;;;;;;4.60;72.28;98119.04;215763;1316;23978;-77
2021/11/25 10:50:59;;;;;;;48.60;23.80;;;;;;;4.80;72.21;98113.83;216038;1315;22787;-77
2021/11/25 10:56:06;;;;;;;39.20;21.40;;;;;;;4.77;70.67;98115.01;216006;1318;23323;-77
2021/11/25 11:01:22;;;;;;;41.20;22.40;;;;;;;4.68;70.73;98106.30;215782;1316;22731;-76
2021/11/25 11:06:45;;;;;;;41.70;23.40;;;;;;;4.58;70.18;98095.90;215930;1316;22610;-78
2021/11/25 11:11:47;;;;;;;42.30;23.80;;;;;;;4.53;70.44;98083.85;216628;1316;22630;-78
2021/11/25 11:16:54;;;;;;;43.80;23.10;;;;;;;4.53;70.55;98077.95;215542;1316;22725;-77
2021/11/25 11:21:58;;;;;;;389.30;48.60;;;;;;;4.59;70.70;98062.54;216163;1316;22651;-76
2021/11/25 11:27:02;;;;;;;640.10;66.40;;;;;;;4.66;70.15;98060.77;216527;1316;22644;-76
2021/11/25 11:32:06;;;;;;;43.60;19.80;;;;;;;4.75;70.59;98061.71;216205;1316;23867;-78
2021/11/25 11:37:13;;;;;;;34.90;18.10;;;;;;;4.80;70.12;98060.12;215755;1319;22618;-77
2021/11/25 11:42:20;;;;;;;34.10;19.70;;;;;;;4.75;69.77;98061.94;215764;1315;22761;-77
2021/11/25 11:47:24;;;;;;;48.20;19.40;;;;;;;4.67;69.97;98053.02;215883;1320;22581;-76
2021/11/25 11:52:26;;;;;;;35.70;18.00;;;;;;;4.61;69.80;98036.47;215600;1315;22591;-76
2021/11/25 11:57:43;;;;;;;28.50;17.10;;;;;;;4.61;70.10;98016.36;215618;1316;23900;-76
2021/11/25 12:02:52;;;;;;;28.10;16.90;;;;;;;4.74;71.01;98008.54;215466;1316;22604;-77
2021/11/25 12:07:54;;;;;;;32.70;17.90;;;;;;;4.79;70.26;98006.63;215328;1321;24225;-76
2021/11/25 12:13:04;;;;;;;33.60;18.00;;;;;;;4.68;70.08;97999.10;215107;1316;22758;-77
2021/11/25 12:18:33;;;;;;;32.30;18.00;;;;;;;4.57;70.04;97987.72;215353;1317;24321;-76
2021/11/25 12:23:40;;;;;;;36.00;20.30;;;;;;;4.52;70.53;97977.01;215351;1318;22652;-75
2021/11/25 12:28:43;;;;;;;34.50;18.50;;;;;;;4.48;70.73;97966.89;215963;1316;22751;-77
2021/11/25 12:33:49;;;;;;;35.40;18.40;;;;;;;4.49;71.15;97963.08;215850;1316;22694;-76
2021/11/25 12:39:04;;;;;;;30.90;17.00;;;;;;;4.56;71.01;97963.64;215681;1316;24686;-76
2021/11/25 12:44:26;;;;;;;30.40;16.20;;;;;;;4.60;71.51;97968.20;215471;1316;24286;-76
2021/11/25 12:49:28;;;;;;;30.70;16.00;;;;;;;4.59;71.57;97956.36;215635;1316;25332;-76
2021/11/25 12:54:30;;;;;;;31.70;16.50;;;;;;;4.57;71.98;97931.41;215523;1319;25396;-76
2021/11/25 12:59:36;;;;;;;29.30;15.00;;;;;;;4.63;72.41;97927.70;215788;1315;22670;-76
2021/11/25 13:04:52;;;;;;;26.40;15.70;;;;;;;4.68;72.38;97915.06;215934;1316;24250;-76
2021/11/25 13:10:27;;;;;;;29.60;15.10;;;;;;;4.69;72.60;97903.33;214687;1322;786998;-75
2021/11/25 13:15:29;;;;;;;26.70;15.00;;;;;;;4.70;72.87;97905.65;215539;1316;24203;-77
2021/11/25 13:20:51;;;;;;;26.50;14.80;;;;;;;4.72;72.92;97899.77;215618;1315;22630;-78
2021/11/25 13:26:03;;;;;;;31.00;16.30;;;;;;;4.75;73.12;97889.14;215252;1322;24204;-76
2021/11/25 13:31:22;;;;;;;43.90;23.60;;;;;;;4.78;73.09;97880.02;215649;1316;22626;-76
2021/11/25 13:36:30;;;;;;;29.20;15.60;;;;;;;4.83;73.41;97879.66;215404;1315;22715;-76
2021/11/25 13:41:33;;;;;;;19.60;11.30;;;;;;;4.87;73.42;97881.19;215939;1318;22526;-78
2021/11/25 13:46:43;;;;;;;18.60;11.00;;;;;;;4.91;73.68;97883.07;216022;1315;24813;-77
2021/11/25 13:52:11;;;;;;;17.10;9.40;;;;;;;4.91;73.83;97877.29;216052;1316;22603;-77
2021/11/25 13:57:17;;;;;;;15.70;9.60;;;;;;;4.90;74.17;97870.55;215804;1315;25397;-78
2021/11/25 14:02:27;;;;;;;15.10;10.10;;;;;;;4.88;74.34;97867.59;215838;1317;24179;-78
2021/11/25 14:07:30;;;;;;;16.30;9.80;;;;;;;4.87;74.24;97860.74;216207;1316;25306;-78
2021/11/25 14:12:35;;;;;;;14.70;10.00;;;;;;;4.86;74.48;97857.25;215982;1318;23763;-78
2021/11/25 14:17:46;;;;;;;17.20;9.40;;;;;;;4.85;74.41;97848.39;216071;1319;22640;-79
2021/11/25 14:22:51;;;;;;;18.70;10.00;;;;;;;4.85;74.49;97854.97;216302;1316;23548;-77
2021/11/25 14:33:13;;;;;;;19.40;11.20;;;;;;;4.75;74.57;97841.38;215848;1316;22526;-78
2021/11/25 14:38:22;;;;;;;17.80;10.90;;;;;;;4.70;74.65;97838.80;215875;1319;25261;-78
2021/11/25 14:43:27;;;;;;;14.90;10.20;;;;;;;4.70;74.93;97831.95;215725;1315;23126;-78
2021/11/25 14:48:32;;;;;;;16.20;10.00;;;;;;;4.64;75.00;97825.89;215677;1315;22698;-76
2021/11/25 14:53:45;;;;;;;15.60;10.50;;;;;;;4.58;74.77;97819.48;215705;1320;22604;-76
2021/11/25 14:58:53;;;;;;;20.70;10.00;;;;;;;4.48;75.06;97808.81;216242;1315;22646;-78
2021/11/25 15:04:01;;;;;;;16.80;9.80;;;;;;;4.39;75.27;97806.31;214778;1320;24250;-77
2021/11/25 15:09:10;;;;;;;17.60;10.90;;;;;;;4.33;75.72;97811.26;215229;1322;23890;-77
2021/11/25 15:14:16;;;;;;;18.70;10.40;;;;;;;4.26;76.13;97807.31;215050;1322;23227;-77
2021/11/25 15:19:25;;;;;;;19.50;12.00;;;;;;;4.21;76.33;97799.64;215084;1322;22672;-76
2021/11/25 15:24:41;;;;;;;16.70;10.40;;;;;;;4.22;76.40;97793.75;214536;1325;22647;-75
2021/11/25 15:29:43;;;;;;;18.00;10.70;;;;;;;4.17;76.48;97791.97;215174;1315;22551;-76
2021/11/25 15:34:55;;;;;;;18.10;10.30;;;;;;;4.10;76.66;97793.48;215162;1316;23914;-75
2021/11/25 15:39:58;;;;;;;16.70;10.40;;;;;;;4.11;76.89;97800.94;214688;1323;22545;-76
2021/11/25 15:45:00;;;;;;;16.60;11.10;;;;;;;4.14;76.66;97808.73;214937;1321;22585;-76
2021/11/25 15:50:04;;;;;;;18.00;11.00;;;;;;;4.14;76.56;97810.58;214871;1321;22591;-76
2021/11/25 15:55:08;;;;;;;16.70;10.30;;;;;;;4.14;76.55;97811.70;215126;1316;22733;-77
2021/11/25 16:00:11;;;;;;;15.10;10.10;;;;;;;4.16;76.76;97813.33;215303;1321;22617;-77
2021/11/25 16:05:13;;;;;;;17.80;11.30;;;;;;;4.19;76.65;97805.11;215067;1322;22996;-76
2021/11/25 16:10:15;;;;;;;17.60;11.20;;;;;;;4.23;76.51;97808.64;215036;1323;25397;-77
2021/11/25 16:15:18;;;;;;;16.40;10.00;;;;;;;4.27;76.24;97811.55;215222;1316;23809;-76
2021/11/25 16:20:20;;;;;;;17.30;10.40;;;;;;;4.32;76.21;97810.94;214775;1322;22681;-76
2021/11/25 16:25:22;;;;;;;17.70;10.70;;;;;;;4.36;75.99;97805.58;215193;1316;22534;-76
2021/11/25 16:30:38;;;;;;;18.30;9.90;;;;;;;4.41;75.75;97807.67;214959;1317;22508;-76
2021/11/25 16:35:40;;;;;;;17.80;11.10;;;;;;;4.43;75.27;97808.79;215110;1322;25291;-75
2021/11/25 16:40:47;;;;;;;15.70;10.20;;;;;;;4.44;75.41;97810.58;215111;1320;25494;-75
2021/11/25 16:45:50;;;;;;;30.60;18.90;;;;;;;4.50;75.79;97805.10;215081;1322;24439;-76
2021/11/25 16:51:02;;;;;;;19.40;11.70;;;;;;;4.61;75.40;97814.70;214980;1318;23897;-76
2021/11/25 16:56:06;;;;;;;19.90;12.70;;;;;;;4.64;75.05;97818.83;214869;1322;23084;-75
2021/11/25 17:01:10;;;;;;;21.60;13.20;;;;;;;4.63;75.10;97808.21;214706;1320;22673;-76
2021/11/25 17:06:12;;;;;;;25.80;14.80;;;;;;;4.59;74.80;97808.87;214856;1319;23190;-75
2021/11/25 17:11:25;;;;;;;24.40;14.20;;;;;;;4.49;74.81;97800.97;214796;1319;22619;-76
2021/11/25 17:16:35;;;;;;;20.30;13.10;;;;;;;4.37;74.79;97802.17;214564;1325;22633;-75
2021/11/25 17:21:37;;;;;;;22.40;13.90;;;;;;;4.30;74.96;97797.12;214955;1320;22736;-75
2021/11/25 17:26:39;;;;;;;26.40;14.90;;;;;;;4.21;75.02;97802.02;214919;1322;22563;-76
2021/11/25 17:31:41;;;;;;;30.10;16.90;;;;;;;4.11;75.09;97802.91;215011;1321;22681;-76
2021/11/25 17:36:44;;;;;;;25.20;15.00;;;;;;;4.03;75.05;97801.29;214901;1321;22623;-77
2021/11/25 17:41:46;;;;;;;22.20;14.00;;;;;;;3.86;75.08;97801.37;214559;1321;22601;-77
2021/11/25 17:46:48;;;;;;;23.70;15.40;;;;;;;3.67;75.18;97806.70;215193;1322;22611;-77
2021/11/25 17:51:50;;;;;;;23.90;13.30;;;;;;;3.51;75.42;97805.44;215310;1321;22582;-76
2021/11/25 17:56:52;;;;;;;29.30;13.70;;;;;;;3.40;75.59;97802.48;215168;1321;22508;-76
2021/11/25 18:01:54;;;;;;;29.70;16.30;;;;;;;3.33;75.64;97806.87;214999;1316;22685;-76
2021/11/25 18:06:56;;;;;;;27.10;15.50;;;;;;;3.30;76.03;97805.80;215238;1316;24202;-76
2021/11/25 18:11:58;;;;;;;28.20;14.70;;;;;;;3.25;75.94;97807.86;214816;1316;24334;-75
2021/11/25 18:17:00;;;;;;;29.10;16.10;;;;;;;3.21;76.10;97811.89;215064;1320;24338;-77
2021/11/25 18:22:04;;;;;;;29.30;14.90;;;;;;;3.17;76.20;97814.85;214854;1320;24276;-76
2021/11/25 18:27:08;;;;;;;29.10;16.60;;;;;;;3.07;76.27;97806.48;215089;1316;22613;-76
2021/11/25 18:32:12;;;;;;;30.00;17.00;;;;;;;3.00;76.47;97803.14;214783;1318;22511;-77
2021/11/25 18:37:27;;;;;;;30.60;16.60;;;;;;;2.96;76.57;97805.77;215095;1320;22512;-76
2021/11/25 18:42:38;;;;;;;27.10;14.60;;;;;;;2.96;76.71;97800.27;214803;1319;22964;-76
2021/11/25 18:47:41;;;;;;;27.90;15.40;;;;;;;3.01;76.73;97801.13;214546;1323;23005;-76
2021/11/25 18:52:44;;;;;;;26.50;15.20;;;;;;;3.09;76.90;97800.88;214836;1322;25967;-77
2021/11/25 18:57:46;;;;;;;31.20;17.10;;;;;;;3.18;76.93;97806.08;214898;1321;22693;-77
2021/11/25 19:02:48;;;;;;;30.00;16.50;;;;;;;3.26;76.99;97812.05;215152;1321;22504;-76
2021/11/25 19:07:52;;;;;;;28.00;16.30;;;;;;;3.37;76.91;97809.67;215051;1320;25464;-76
2021/11/25 19:12:55;;;;;;;32.90;17.30;;;;;;;3.47;76.83;97807.08;215033;1319;22596;-76
2021/11/25 19:17:58;;;;;;;33.00;18.70;;;;;;;3.53;76.83;97807.46;214771;1321;22755;-76
2021/11/25 19:23:00;;;;;;;29.60;18.10;;;;;;;3.59;76.78;97805.86;214582;1319;24203;-76
2021/11/25 19:28:04;;;;;;;32.30;18.00;;;;;;;3.67;76.76;97806.54;214775;1321;22635;-76
2021/11/25 19:33:06;;;;;;;29.40;16.50;;;;;;;3.72;76.68;97807.12;214707;1324;24246;-76
2021/11/25 19:38:21;;;;;;;26.30;16.00;;;;;;;3.83;76.71;97805.30;214915;1315;24006;-76
2021/11/25 19:43:43;;;;;;;27.60;16.60;;;;;;;3.99;76.69;97804.48;214880;1320;22535;-76
2021/11/25 19:48:46;;;;;;;30.60;17.10;;;;;;;4.07;76.54;97799.25;214852;1322;22629;-78
2021/11/25 19:53:49;;;;;;;27.20;16.40;;;;;;;4.14;76.35;97801.77;215100;1320;22733;-77
2021/11/25 19:58:51;;;;;;;27.10;16.50;;;;;;;4.23;76.15;97803.66;215160;1319;23127;-76
2021/11/25 20:03:53;;;;;;;27.00;15.40;;;;;;;4.23;75.97;97808.64;214512;1322;25541;-76
2021/11/25 20:08:55;;;;;;;31.50;16.80;;;;;;;4.28;76.05;97802.91;215010;1316;22790;-76
2021/11/25 20:13:58;;;;;;;27.30;16.30;;;;;;;4.35;75.93;97806.85;215192;1320;22595;-76
2021/11/25 20:19:03;;;;;;;31.20;18.70;;;;;;;4.40;75.92;97803.02;214922;1319;24364;-76
2021/11/25 20:24:08;;;;;;;30.40;16.90;;;;;;;4.40;75.67;97797.92;215001;1319;22660;-75
2021/11/25 20:29:10;;;;;;;31.80;18.70;;;;;;;4.38;75.30;97796.51;214998;1320;23814;-76
2021/11/25 20:34:12;;;;;;;31.10;17.00;;;;;;;4.34;75.36;97789.46;214646;1323;25382;-76
2021/11/25 20:39:14;;;;;;;32.20;17.60;;;;;;;4.32;75.38;97782.20;214845;1319;22637;-75
2021/11/25 20:44:20;;;;;;;27.50;16.80;;;;;;;4.33;75.40;97783.00;214742;1320;22728;-76
2021/11/25 20:49:22;;;;;;;35.80;19.80;;;;;;;4.34;75.50;97788.08;215107;1320;24260;-76
2021/11/25 20:54:25;;;;;;;32.70;18.30;;;;;;;4.37;75.35;97785.85;215306;1321;22611;-76
2021/11/25 20:59:27;;;;;;;32.60;18.60;;;;;;;4.35;75.41;97785.44;215247;1320;22508;-77
2021/11/25 21:04:34;;;;;;;35.00;20.20;;;;;;;4.35;75.38;97786.45;214635;1323;23992;-76
2021/11/25 21:09:36;;;;;;;33.30;18.00;;;;;;;4.37;75.38;97787.27;214785;1321;236399;-76
2021/11/25 21:14:38;;;;;;;34.20;18.60;;;;;;;4.39;75.26;97791.30;214874;1322;24215;-76
2021/11/25 21:19:41;;;;;;;33.70;19.50;;;;;;;4.42;75.35;97781.16;214891;1320;25346;-76
2021/11/25 21:24:43;;;;;;;33.50;19.60;;;;;;;4.43;75.39;97777.44;215163;1321;24229;-76
2021/11/25 21:29:45;;;;;;;33.90;18.30;;;;;;;4.44;75.32;97772.14;214890;1321;22646;-76
2021/11/25 21:34:48;;;;;;;35.60;19.70;;;;;;;4.42;74.98;97770.86;215072;1322;22933;-75
2021/11/25 21:39:50;;;;;;;32.70;18.10;;;;;;;4.42;75.03;97759.20;215067;1316;24507;-77
2021/11/25 21:44:52;;;;;;;34.10;18.30;;;;;;;4.39;74.95;97752.69;214692;1322;24487;-77
2021/11/25 21:49:54;;;;;;;34.40;19.40;;;;;;;4.36;75.08;97753.13;215132;1319;24209;-77
2021/11/25 21:54:56;;;;;;;32.80;19.20;;;;;;;4.35;75.01;97746.60;215385;1316;22513;-76
2021/11/25 22:00:13;;;;;;;35.70;18.90;;;;;;;4.32;75.08;97745.66;214930;1321;22690;-76
2021/11/25 22:05:16;;;;;;;31.30;17.80;;;;;;;4.30;75.18;97737.15;214944;1321;22509;-76
2021/11/25 22:10:18;;;;;;;38.20;20.40;;;;;;;4.31;75.09;97731.42;214853;1316;22746;-76
2021/11/25 22:15:20;;;;;;;34.40;18.70;;;;;;;4.29;75.15;97736.67;214829;1321;23950;-76
2021/11/25 22:20:32;;;;;;;34.80;19.00;;;;;;;4.28;75.20;97744.68;215070;1322;22617;-76
2021/11/25 22:25:34;;;;;;;35.20;19.40;;;;;;;4.31;75.10;97736.70;215319;1321;22680;-77
2021/11/25 22:30:49;;;;;;;35.70;20.10;;;;;;;4.28;75.09;97729.15;214927;1319;25354;-76
2021/11/25 22:35:57;;;;;;;34.90;19.10;;;;;;;4.24;75.08;97723.17;214745;1320;22542;-76
2021/11/25 22:41:00;;;;;;;32.40;19.10;;;;;;;4.21;75.06;97714.70;214456;1322;24312;-75
2021/11/25 22:46:06;;;;;;;32.80;18.60;;;;;;;4.17;75.36;97721.72;214674;1325;24243;-75
2021/11/25 22:51:08;;;;;;;34.70;19.00;;;;;;;4.16;75.52;97729.40;214832;1323;25325;-75
2021/11/25 22:56:10;;;;;;;32.40;18.00;;;;;;;4.18;75.63;97733.15;214866;1322;22648;-76
2021/11/25 23:01:26;;;;;;;31.10;18.40;;;;;;;4.21;75.52;97726.00;214886;1322;23073;-76
2021/11/25 23:06:29;;;;;;;33.20;19.50;;;;;;;4.25;75.71;97722.21;214729;1324;22692;-76
2021/11/25 23:11:32;;;;;;;34.70;18.70;;;;;;;4.28;75.72;97720.17;215028;1319;25381;-76
2021/11/25 23:16:34;;;;;;;33.70;19.00;;;;;;;4.31;75.60;97717.04;215034;1313;25407;-75
2021/11/25 23:21:37;;;;;;;31.00;19.00;;;;;;;4.33;75.65;97721.44;214858;1324;22527;-76
2021/11/25 23:26:59;;;;;;;34.20;17.40;;;;;;;4.33;75.52;97717.02;214508;1321;22648;-76